Time;durP1;ratioP1;P1;durP2;ratioP2;P2;SDS_P1;SDS_P2;PMS_P1;PMS_P2;Temp;Humidity;BMP_temperature;BMP_pressure;BME280_temperature;BME280_humidity;BME280_pressure;Samples;Min_cycle;Max_cycle;Signal;HPM_P1;HPM_P2
2021/10/01 00:00:18;;;;;;;;;;;7.40;99.90;;;;;;4993591;28;20446;-73
2021/10/01 00:02:51;;;;;;;;;;;7.40;99.90;;;;;;4995295;28;19932;-73
2021/10/01 00:05:23;;;;;;;;;;;7.40;99.90;;;;;;5014044;28;19925;-73
2021/10/01 00:07:55;;;;;;;;;;;7.40;99.90;;;;;;4997943;28;20411;-73
2021/10/01 00:10:22;;;;;;;;;;;7.30;99.90;;;;;;4981663;28;19926;-73
2021/10/01 00:12:49;;;;;;;;;;;7.30;99.90;;;;;;4997898;28;19925;-73
2021/10/01 00:15:16;;;;;;;;;;;7.30;99.90;;;;;;4997794;28;19926;-74
2021/10/01 00:17:43;;;;;;;;;;;7.20;99.90;;;;;;4997590;28;19933;-73
2021/10/01 00:20:11;;;;;;;;;;;7.20;99.90;;;;;;5014037;28;19957;-72
2021/10/01 00:22:38;;;;;;;;;;;7.20;99.90;;;;;;4998090;28;19941;-74
2021/10/01 00:25:10;;;;;;;;;;;7.20;99.90;;;;;;5013846;28;19926;-73
2021/10/01 00:27:37;;;;;;;;;;;7.20;99.90;;;;;;4997833;28;19933;-73
2021/10/01 00:30:06;;;;;;;;;;;7.20;99.90;;;;;;4997831;28;19932;-73
2021/10/01 00:32:38;;;;;;;;;;;7.20;99.90;;;;;;4998749;28;19929;-73
2021/10/01 00:35:09;;;;;;;;;;;7.10;99.90;;;;;;5013639;28;20381;-73
2021/10/01 00:37:41;;;;;;;;;;;7.10;99.90;;;;;;5015033;28;20322;-74
2021/10/01 00:40:13;;;;;;;;;;;7.00;99.90;;;;;;4997284;28;20016;-73
2021/10/01 00:42:41;;;;;;;;;;;7.00;99.90;;;;;;4997655;28;19929;-73
2021/10/01 00:45:08;;;;;;;;;;;6.90;99.90;;;;;;5014659;28;20016;-73
2021/10/01 00:47:39;;;;;;;;;;;6.90;99.90;;;;;;5015068;28;20315;-74
2021/10/01 00:50:07;;;;;;;;;;;6.90;99.90;;;;;;4997818;28;19925;-73
2021/10/01 00:52:38;;;;;;;;;;;7.00;99.90;;;;;;4997455;28;19970;-73
2021/10/01 00:55:06;;;;;;;;;;;7.00;99.90;;;;;;4996913;28;19929;-73
2021/10/01 00:57:38;;;;;;;;;;;7.00;99.90;;;;;;4997089;28;19930;-73
2021/10/01 01:00:23;;;;;;;;;;;6.90;99.90;;;;;;4996671;28;20016;-73
2021/10/01 01:02:50;;;;;;;;;;;6.90;99.90;;;;;;5014353;28;19932;-73
2021/10/01 01:05:28;;;;;;;;;;;6.90;99.90;;;;;;4995770;28;19932;-73
2021/10/01 01:08:07;;;;;;;;;;;6.80;99.90;;;;;;4996385;28;20394;-72
2021/10/01 01:10:52;;;;;;;;;;;6.80;99.90;;;;;;4996404;28;19926;-73
2021/10/01 01:13:29;;;;;;;;;;;6.70;99.90;;;;;;4997051;28;19988;-73
2021/10/01 01:15:58;;;;;;;;;;;6.70;99.90;;;;;;5013571;28;19926;-73
2021/10/01 01:18:35;;;;;;;;;;;6.70;99.90;;;;;;4996418;28;19971;-73
2021/10/01 01:21:14;;;;;;;;;;;6.70;99.90;;;;;;4996810;28;19933;-73
2021/10/01 01:23:59;;;;;;;;;;;6.70;99.90;;;;;;4996836;28;20039;-73
2021/10/01 01:26:58;;;;;;;;;;;6.70;99.90;;;;;;4996428;28;20170;-73
2021/10/01 01:29:35;;;;;;;;;;;6.70;99.90;;;;;;4995739;28;20339;-73
2021/10/01 01:32:02;;;;;;;;;;;6.70;99.90;;;;;;4995885;28;19965;-73
2021/10/01 01:34:36;;;;;;;;;;;6.70;99.90;;;;;;4995631;28;19929;-73
2021/10/01 01:37:10;;;;;;;;;;;6.70;99.90;;;;;;5013483;28;19926;-73
2021/10/01 01:39:39;;;;;;;;;;;6.70;99.90;;;;;;5011922;28;19936;-72
2021/10/01 01:42:07;;;;;;;;;;;6.80;99.90;;;;;;5013823;28;19929;-74
2021/10/01 01:44:39;;;;;;;;;;;6.80;99.90;;;;;;5012511;28;19964;-73
2021/10/01 01:47:11;;;;;;;;;;;6.70;99.90;;;;;;4996411;28;19932;-73
2021/10/01 01:49:39;;;;;;;;;;;6.70;99.90;;;;;;4996084;28;20427;-72
2021/10/01 01:52:08;;;;;;;;;;;6.70;99.90;;;;;;4995961;28;20323;-74
2021/10/01 01:54:40;;;;;;;;;;;6.60;99.90;;;;;;4995821;28;20016;-73
2021/10/01 01:57:12;;;;;;;;;;;6.60;99.90;;;;;;4996185;28;19933;-73
2021/10/01 01:59:44;;;;;;;;;;;6.60;99.90;;;;;;4995939;28;19973;-73
2021/10/01 02:02:18;;;;;;;;;;;6.60;99.90;;;;;;4995892;28;19991;-73
2021/10/01 02:04:52;;;;;;;;;;;6.60;99.90;;;;;;5013047;28;19932;-74
2021/10/01 02:07:21;;;;;;;;;;;6.60;99.90;;;;;;4995046;28;20450;-73
2021/10/01 02:09:49;;;;;;;;;;;6.60;99.90;;;;;;5011997;28;19979;-73
2021/10/01 02:12:16;;;;;;;;;;;6.60;99.90;;;;;;5012256;28;19929;-73
2021/10/01 02:14:49;;;;;;;;;;;6.60;99.90;;;;;;5012918;28;19933;-73
2021/10/01 02:17:19;;;;;;;;;;;6.60;99.90;;;;;;4995499;28;19957;-72
2021/10/01 02:19:51;;;;;;;;;;;6.60;99.90;;;;;;4995664;28;19974;-73
2021/10/01 02:22:23;;;;;;;;;;;6.50;99.90;;;;;;4980113;28;20407;-74
2021/10/01 02:24:51;;;;;;;;;;;6.50;99.90;;;;;;4994975;28;20454;-72
2021/10/01 02:27:25;;;;;;;;;;;6.50;99.90;;;;;;4995137;28;19926;-73
2021/10/01 02:29:59;;;;;;;;;;;6.40;99.90;;;;;;4995397;28;19925;-73
2021/10/01 02:32:37;;;;;;;;;;;6.40;99.90;;;;;;5013002;28;19926;-73
2021/10/01 02:35:09;;;;;;;;;;;6.40;99.90;;;;;;5011481;28;19932;-72
2021/10/01 02:37:41;;;;;;;;;;;6.40;99.90;;;;;;4995869;28;19925;-73
2021/10/01 02:40:15;;;;;;;;;;;6.40;99.90;;;;;;4995103;28;20019;-74
2021/10/01 02:42:47;;;;;;;;;;;6.40;99.90;;;;;;4995218;28;19936;-73
2021/10/01 02:45:19;;;;;;;;;;;6.40;99.90;;;;;;4995108;28;20249;-73
2021/10/01 02:47:53;;;;;;;;;;;6.40;99.90;;;;;;4995082;28;19926;-73
2021/10/01 02:50:24;;;;;;;;;;;6.40;99.90;;;;;;4995008;28;19925;-73
2021/10/01 02:53:01;;;;;;;;;;;6.40;99.90;;;;;;4994881;28;19984;-73
2021/10/01 02:55:38;;;;;;;;;;;6.30;99.90;;;;;;4994741;28;20056;-73
2021/10/01 02:58:10;;;;;;;;;;;6.30;99.90;;;;;;4994982;28;20355;-73
2021/10/01 03:00:37;;;;;;;;;;;6.20;99.90;;;;;;4978782;28;19925;-72
2021/10/01 03:03:12;;;;;;;;;;;6.20;99.90;;;;;;4996188;28;19926;-73
2021/10/01 03:05:40;;;;;;;;;;;6.10;99.90;;;;;;4983608;28;19953;-73
2021/10/01 03:08:15;;;;;;;;;;;6.20;99.90;;;;;;4970692;28;20008;-72
2021/10/01 03:10:43;;;;;;;;;;;6.20;99.90;;;;;;4978339;28;19930;-73
2021/10/01 03:13:16;;;;;;;;;;;6.20;99.90;;;;;;4973985;28;19926;-73
2021/10/01 03:15:43;;;;;;;;;;;6.20;99.90;;;;;;4969810;28;19926;-73
2021/10/01 03:18:10;;;;;;;;;;;6.10;99.90;;;;;;4998620;28;20016;-73
2021/10/01 03:20:37;;;;;;;;;;;6.10;99.90;;;;;;4970878;28;20029;-73
2021/10/01 03:23:06;;;;;;;;;;;6.10;99.90;;;;;;4974703;28;19941;-74
2021/10/01 03:25:33;;;;;;;;;;;6.10;99.90;;;;;;4975964;28;19931;-72
2021/10/01 03:28:00;;;;;;;;;;;6.10;99.90;;;;;;4992606;28;19932;-78
2021/10/01 03:30:27;;;;;;;;;;;6.10;99.90;;;;;;4992229;28;20016;-72
2021/10/01 03:32:59;;;;;;;;;;;6.60;99.90;;;;;;4976686;28;19933;-73
2021/10/01 03:35:31;;;;;;;;;;;6.90;99.90;;;;;;5009777;28;19953;-73
2021/10/01 03:38:03;;;;;;;;;;;7.00;99.90;;;;;;4998297;28;19925;-73
2021/10/01 03:40:32;;;;;;;;;;;6.80;99.90;;;;;;4998397;28;19932;-73
2021/10/01 03:42:59;;;;;;;;;;;6.70;99.90;;;;;;4998433;28;20392;-73
2021/10/01 03:45:28;;;;;;;;;;;6.60;99.90;;;;;;5014808;28;20284;-73
2021/10/01 03:48:03;;;;;;;;;;;6.50;99.90;;;;;;4999677;28;19931;-73
2021/10/01 03:50:52;;;;;;;;;;;6.40;99.90;;;;;;4997794;28;19926;-73
2021/10/01 03:53:19;;;;;;;;;;;6.30;99.90;;;;;;5015300;28;19929;-73
2021/10/01 03:55:45;;;;;;;;;;;6.20;99.90;;;;;;4997328;28;19936;-73
2021/10/01 03:58:17;;;;;;;;;;;6.10;99.90;;;;;;4998533;28;19925;-73
2021/10/01 04:00:45;;;;;;;;;;;6.10;99.90;;;;;;4997416;28;19929;-74
2021/10/01 04:03:17;;;;;;;;;;;6.10;99.90;;;;;;4981760;28;19968;-73
2021/10/01 04:05:49;;;;;;;;;;;6.00;99.90;;;;;;4997974;28;19925;-75
2021/10/01 04:08:16;;;;;;;;;;;6.00;99.90;;;;;;4997310;28;20418;-74
2021/10/01 04:10:48;;;;;;;;;;;6.00;99.90;;;;;;4997376;28;19926;-74
2021/10/01 04:13:21;;;;;;;;;;;5.90;99.90;;;;;;4997013;28;19929;-74
2021/10/01 04:15:50;;;;;;;;;;;5.90;99.90;;;;;;4980355;28;20020;-73
2021/10/01 04:18:19;;;;;;;;;;;5.90;99.90;;;;;;5000914;28;19972;-73
2021/10/01 04:20:46;;;;;;;;;;;5.90;99.90;;;;;;4980250;28;19980;-72
2021/10/01 04:23:19;;;;;;;;;;;5.80;99.90;;;;;;4996812;28;19932;-73
2021/10/01 04:25:52;;;;;;;;;;;5.80;99.90;;;;;;4997166;28;19925;-73
2021/10/01 04:28:21;;;;;;;;;;;5.80;99.90;;;;;;4996733;28;20009;-73
2021/10/01 04:30:58;;;;;;;;;;;5.80;99.90;;;;;;4996304;28;20300;-72
2021/10/01 04:33:25;;;;;;;;;;;5.80;99.90;;;;;;4996386;28;19964;-73
2021/10/01 04:35:59;;;;;;;;;;;5.80;99.90;;;;;;4996805;28;19925;-73
2021/10/01 04:38:31;;;;;;;;;;;5.80;99.90;;;;;;4997206;28;20019;-73
2021/10/01 04:40:58;;;;;;;;;;;5.80;99.90;;;;;;4996813;28;19925;-72
2021/10/01 04:43:30;;;;;;;;;;;5.70;99.90;;;;;;5013441;28;19979;-73
2021/10/01 04:46:23;;;;;;;;;;;5.80;99.90;;;;;;5011845;28;19925;-73
2021/10/01 04:48:55;;;;;;;;;;;5.70;99.90;;;;;;4986675;28;20448;-73
2021/10/01 04:51:28;;;;;;;;;;;5.80;99.90;;;;;;4975705;28;19925;-73
2021/10/01 04:54:00;;;;;;;;;;;5.80;99.90;;;;;;4961015;28;20341;-73
2021/10/01 04:56:33;;;;;;;;;;;5.70;99.90;;;;;;4976551;28;19930;-73
2021/10/01 04:59:00;;;;;;;;;;;5.70;99.90;;;;;;4976808;28;19980;-73
2021/10/01 05:01:50;;;;;;;;;;;5.70;99.90;;;;;;4980221;28;19933;-73
2021/10/01 05:04:37;;;;;;;;;;;5.70;99.90;;;;;;4979444;28;19996;-73
2021/10/01 05:07:21;;;;;;;;;;;5.70;99.90;;;;;;4994237;28;19929;-72
2021/10/01 05:10:06;;;;;;;;;;;5.60;99.90;;;;;;4980168;28;19936;-73
2021/10/01 05:13:10;;;;;;;;;;;5.70;99.90;;;;;;4960274;28;20356;-73
2021/10/01 05:15:57;;;;;;;;;;;5.70;99.90;;;;;;4992120;28;19926;-72
2021/10/01 05:18:42;;;;;;;;;;;5.70;99.90;;;;;;4993078;28;20416;-73
2021/10/01 05:21:52;;;;;;;;;;;5.70;99.90;;;;;;4952223;29;19927;-73
2021/10/01 05:24:19;;;;;;;;;;;5.70;99.90;;;;;;4949355;29;20506;-73
2021/10/01 05:26:51;;;;;;;;;;;5.70;99.90;;;;;;4946604;28;20328;-73
2021/10/01 05:29:22;;;;;;;;;;;5.70;99.90;;;;;;4971861;28;19930;-73
2021/10/01 05:31:49;;;;;;;;;;;5.70;99.90;;;;;;4972315;28;19926;-73
2021/10/01 05:34:18;;;;;;;;;;;5.70;99.90;;;;;;4972114;28;19992;-72
2021/10/01 05:36:50;;;;;;;;;;;5.70;99.90;;;;;;4972544;28;19926;-73
2021/10/01 05:39:22;;;;;;;;;;;5.70;99.90;;;;;;4972777;28;20043;-73
2021/10/01 05:41:49;;;;;;;;;;;5.70;99.90;;;;;;4972337;28;20538;-73
2021/10/01 05:44:21;;;;;;;;;;;5.70;99.90;;;;;;4972330;28;19930;-73
2021/10/01 05:46:55;;;;;;;;;;;5.70;99.90;;;;;;4972727;28;19926;-73
2021/10/01 05:49:45;;;;;;;;;;;5.60;99.90;;;;;;4937081;28;19930;-73
2021/10/01 05:55:41;;;;;;;;;;;5.70;99.90;;;;;;4972851;28;20381;-73
2021/10/01 05:58:31;;;;;;;;;;;5.70;99.90;;;;;;4973856;28;19941;-73
2021/10/01 06:01:03;;;;;;;;;;;5.70;99.90;;;;;;4970556;28;20368;-73
2021/10/01 06:03:30;;;;;;;;;;;5.70;99.90;;;;;;4971677;28;19926;-73
2021/10/01 06:05:57;;;;;;;;;;;5.70;99.90;;;;;;4971804;28;19937;-73
2021/10/01 06:08:29;;;;;;;;;;;5.70;99.90;;;;;;4972959;28;19966;-73
2021/10/01 06:11:00;;;;;;;;;;;5.70;99.90;;;;;;4972419;28;19930;-73
2021/10/01 06:13:33;;;;;;;;;;;5.80;99.90;;;;;;4972763;28;20309;-72
2021/10/01 06:16:06;;;;;;;;;;;5.80;99.90;;;;;;4972184;28;20286;-73
2021/10/01 06:18:32;;;;;;;;;;;5.80;99.90;;;;;;4972547;28;19937;-72
2021/10/01 06:21:05;;;;;;;;;;;5.80;99.90;;;;;;4972250;28;19926;-73
2021/10/01 06:23:37;;;;;;;;;;;5.80;99.90;;;;;;4974051;28;19941;-73
2021/10/01 06:26:08;;;;;;;;;;;5.80;99.90;;;;;;4972121;28;19998;-73
2021/10/01 06:28:40;;;;;;;;;;;5.80;99.90;;;;;;4972501;28;20033;-72
2021/10/01 06:31:12;;;;;;;;;;;5.90;99.90;;;;;;4972217;28;19949;-72
2021/10/01 06:33:44;;;;;;;;;;;5.80;99.90;;;;;;4972302;28;20403;-73
2021/10/01 06:36:19;;;;;;;;;;;5.90;99.90;;;;;;4971768;28;19926;-72
2021/10/01 06:38:51;;;;;;;;;;;5.90;99.90;;;;;;4973272;28;19926;-73
2021/10/01 06:41:23;;;;;;;;;;;6.00;99.90;;;;;;4972452;28;19926;-73
2021/10/01 06:44:00;;;;;;;;;;;6.10;99.90;;;;;;4972238;28;19932;-73
2021/10/01 06:47:03;;;;;;;;;;;6.10;99.90;;;;;;4971719;28;19949;-72
2021/10/01 06:49:41;;;;;;;;;;;6.20;99.90;;;;;;4954097;28;19927;-73
2021/10/01 07:23:26;;;;;;;;;;;7.00;99.90;;;;;;4971632;28;19926;-73
2021/10/01 08:21:34;;;;;;;;;;;9.40;99.90;;;;;;4991437;28;19954;-74
2021/10/01 08:24:02;;;;;;;;;;;9.50;99.90;;;;;;4991421;28;19933;-76
2021/10/01 08:26:29;;;;;;;;;;;9.60;99.90;;;;;;4961952;28;20180;-74
2021/10/01 08:28:56;;;;;;;;;;;9.70;99.90;;;;;;4977916;28;20371;-74
2021/10/01 08:31:25;;;;;;;;;;;9.80;99.90;;;;;;4977525;28;19961;-74
2021/10/01 08:33:57;;;;;;;;;;;9.90;99.90;;;;;;4977563;28;20030;-73
2021/10/01 08:36:29;;;;;;;;;;;9.90;99.90;;;;;;4977549;28;20024;-72
2021/10/01 08:39:03;;;;;;;;;;;9.90;99.90;;;;;;4978074;28;19932;-74
2021/10/01 08:41:29;;;;;;;;;;;10.00;99.90;;;;;;4975367;28;19925;-72
2021/10/01 08:44:00;;;;;;;;;;;10.10;99.90;;;;;;4977345;28;20312;-74
2021/10/01 08:46:27;;;;;;;;;;;10.20;99.90;;;;;;4975897;28;19929;-74
2021/10/01 08:48:54;;;;;;;;;;;10.30;99.90;;;;;;4973035;28;19926;-74
2021/10/01 08:51:26;;;;;;;;;;;10.40;99.90;;;;;;4977022;28;19932;-74
2021/10/01 08:53:53;;;;;;;;;;;10.50;99.90;;;;;;4977612;28;20278;-74
2021/10/01 08:56:26;;;;;;;;;;;10.60;99.90;;;;;;4977646;28;19928;-74
2021/10/01 08:58:58;;;;;;;;;;;10.70;99.90;;;;;;4977208;28;19929;-74
2021/10/01 09:01:25;;;;;;;;;;;10.80;99.90;;;;;;4960770;28;19932;-73
2021/10/01 09:03:57;;;;;;;;;;;10.90;99.90;;;;;;4976768;28;19926;-74
2021/10/01 09:06:29;;;;;;;;;;;11.00;99.90;;;;;;4994468;28;20036;-74
2021/10/01 09:08:57;;;;;;;;;;;11.20;99.90;;;;;;4960882;28;20376;-73
2021/10/01 09:11:30;;;;;;;;;;;11.30;99.90;;;;;;4978146;28;19925;-74
2021/10/01 09:14:01;;;;;;;;;;;11.40;99.90;;;;;;4976971;28;19932;-74
2021/10/01 09:16:34;;;;;;;;;;;11.50;99.90;;;;;;4978196;28;19926;-74
2021/10/01 09:19:06;;;;;;;;;;;11.60;99.90;;;;;;4976957;28;19932;-73
2021/10/01 09:21:43;;;;;;;;;;;11.70;99.90;;;;;;4976728;28;19929;-74
2021/10/01 09:24:13;;;;;;;;;;;11.80;99.90;;;;;;4976379;28;19926;-73
2021/10/01 09:26:48;;;;;;;;;;;11.90;99.90;;;;;;4976996;28;19933;-73
2021/10/01 09:29:26;;;;;;;;;;;12.10;99.90;;;;;;4976824;28;20028;-73
2021/10/01 09:31:54;;;;;;;;;;;12.20;99.90;;;;;;4994125;28;20377;-74
2021/10/01 09:34:26;;;;;;;;;;;12.40;99.90;;;;;;4993538;28;19972;-73
2021/10/01 09:37:07;;;;;;;;;;;12.40;99.90;;;;;;4960583;28;19933;-74
2021/10/01 09:39:41;;;;;;;;;;;12.60;99.90;;;;;;4993840;28;19964;-73
2021/10/01 09:42:18;;;;;;;;;;;12.60;99.90;;;;;;4976244;28;19976;-73
2021/10/01 09:44:47;;;;;;;;;;;12.80;99.90;;;;;;4985743;28;19933;-73
2021/10/01 09:47:45;;;;;;;;;;;12.90;99.90;;;;;;4976553;28;19925;-73
2021/10/01 09:50:26;;;;;;;;;;;12.90;99.90;;;;;;4959482;28;20024;-73
2021/10/01 09:53:03;;;;;;;;;;;13.10;99.90;;;;;;4977116;28;19925;-74
2021/10/01 09:55:36;;;;;;;;;;;13.20;99.90;;;;;;4960621;28;19961;-74
2021/10/01 09:58:03;;;;;;;;;;;13.40;99.90;;;;;;4976585;28;20025;-73
2021/10/01 10:00:40;;;;;;;;;;;13.50;99.90;;;;;;4976296;28;19949;-73
2021/10/01 10:03:13;;;;;;;;;;;13.60;99.90;;;;;;4977063;28;19926;-74
2021/10/01 10:05:55;;;;;;;;;;;13.70;99.90;;;;;;4993492;28;19981;-74
2021/10/01 10:08:31;;;;;;;;;;;13.80;99.90;;;;;;4976053;28;19925;-74
2021/10/01 10:11:04;;;;;;;;;;;13.90;99.90;;;;;;4993346;28;19926;-73
2021/10/01 10:13:35;;;;;;;;;;;14.00;99.90;;;;;;4960604;28;19972;-73
2021/10/01 10:16:29;;;;;;;;;;;14.10;99.90;;;;;;4992982;28;19929;-73
2021/10/01 10:19:07;;;;;;;;;;;14.30;99.90;;;;;;4960855;28;19926;-73
2021/10/01 10:21:39;;;;;;;;;;;14.40;99.90;;;;;;4960486;28;19937;-73
2021/10/01 10:24:10;;;;;;;;;;;14.50;99.90;;;;;;4992769;28;19933;-73
2021/10/01 10:26:37;;;;;;;;;;;14.60;99.90;;;;;;4959539;28;19933;-73
2021/10/01 10:29:10;;;;;;;;;;;14.70;99.90;;;;;;4976432;28;19929;-73
2021/10/01 10:31:39;;;;;;;;;;;14.80;99.90;;;;;;4959362;28;19932;-73
2021/10/01 10:34:23;;;;;;;;;;;14.90;99.90;;;;;;4992463;28;20412;-73
2021/10/01 10:37:09;;;;;;;;;;;15.00;99.90;;;;;;4975215;28;19925;-73
2021/10/01 10:39:41;;;;;;;;;;;15.20;99.90;;;;;;4975353;28;19925;-73
2021/10/01 10:42:14;;;;;;;;;;;15.30;99.90;;;;;;4975062;28;20038;-73
2021/10/01 10:44:50;;;;;;;;;;;15.40;99.90;;;;;;4974945;28;20019;-73
2021/10/01 10:47:38;;;;;;;;;;;15.50;99.90;;;;;;4958697;28;20012;-73
2021/10/01 10:50:27;;;;;;;;;;;15.70;99.90;;;;;;4992584;28;19926;-73
2021/10/01 10:53:01;;;;;;;;;;;15.80;99.90;;;;;;4959903;28;19964;-73
2021/10/01 10:55:28;;;;;;;;;;;16.00;99.90;;;;;;4974671;28;20004;-73
2021/10/01 10:58:19;;;;;;;;;;;16.10;99.90;;;;;;4976061;28;19932;-73
2021/10/01 11:00:55;;;;;;;;;;;16.20;99.90;;;;;;4974879;28;19968;-73
2021/10/01 11:03:27;;;;;;;;;;;16.40;99.90;;;;;;4974750;28;19933;-73
2021/10/01 11:06:09;;;;;;;;;;;16.50;99.90;;;;;;4974466;28;19934;-73
2021/10/01 11:08:42;;;;;;;;;;;16.60;99.90;;;;;;4974673;28;19926;-73
2021/10/01 11:11:29;;;;;;;;;;;16.70;99.90;;;;;;4974629;28;19935;-73
2021/10/01 11:14:15;;;;;;;;;;;16.80;99.90;;;;;;4958642;28;19933;-73
2021/10/01 11:16:52;;;;;;;;;;;16.90;99.90;;;;;;4974798;28;19926;-73
2021/10/01 11:19:36;;;;;;;;;;;17.10;99.90;;;;;;4974718;28;19929;-73
2021/10/01 11:22:28;;;;;;;;;;;17.20;99.90;;;;;;4974873;28;20278;-73
2021/10/01 11:25:20;;;;;;;;;;;17.30;99.90;;;;;;4974533;28;19965;-73
2021/10/01 11:27:51;;;;;;;;;;;17.40;99.90;;;;;;4992573;28;19930;-73
2021/10/01 11:30:19;;;;;;;;;;;17.50;99.90;;;;;;4974847;28;19933;-73
2021/10/01 11:32:51;;;;;;;;;;;17.50;99.90;;;;;;4992380;28;20309;-73
2021/10/01 11:35:23;;;;;;;;;;;17.50;99.90;;;;;;4974452;28;19988;-73
2021/10/01 11:37:55;;;;;;;;;;;17.60;99.90;;;;;;4974834;28;19933;-73
2021/10/01 11:40:28;;;;;;;;;;;17.60;99.90;;;;;;4992275;28;19941;-74
2021/10/01 11:43:00;;;;;;;;;;;17.70;99.90;;;;;;4959326;28;20392;-73
2021/10/01 11:45:36;;;;;;;;;;;17.80;99.90;;;;;;4974190;28;19925;-74
2021/10/01 11:48:09;;;;;;;;;;;17.90;99.90;;;;;;4974725;28;19980;-73
2021/10/01 11:50:39;;;;;;;;;;;18.10;99.90;;;;;;4974695;28;19934;-73
2021/10/01 11:53:15;;;;;;;;;;;18.10;99.90;;;;;;4974693;28;19930;-74
2021/10/01 11:55:49;;;;;;;;;;;18.20;99.90;;;;;;4990158;28;20281;-73
2021/10/01 11:58:22;;;;;;;;;;;18.20;99.90;;;;;;4975241;28;19925;-73
2021/10/01 12:00:55;;;;;;;;;;;18.30;99.90;;;;;;4994656;28;19930;-73
2021/10/01 12:03:27;;;;;;;;;;;18.40;99.90;;;;;;4994657;28;19999;-73
2021/10/01 12:05:55;;;;;;;;;;;18.50;99.90;;;;;;4978058;28;19926;-73
2021/10/01 12:08:29;;;;;;;;;;;18.60;99.90;;;;;;4994413;28;19926;-74
2021/10/01 12:11:02;;;;;;;;;;;18.60;99.90;;;;;;4978996;28;19926;-74
2021/10/01 12:13:35;;;;;;;;;;;18.50;99.90;;;;;;4979291;28;19949;-73
2021/10/01 12:16:11;;;;;;;;;;;18.60;99.90;;;;;;4993907;28;19926;-74
2021/10/01 12:18:44;;;;;;;;;;;18.70;99.90;;;;;;4978152;28;19976;-73
2021/10/01 12:21:17;;;;;;;;;;;18.70;99.90;;;;;;4995760;28;20308;-74
2021/10/01 12:24:00;;;;;;;;;;;18.80;99.90;;;;;;4994422;28;19926;-73
2021/10/01 12:26:34;;;;;;;;;;;19.00;99.90;;;;;;4977778;28;20404;-73
2021/10/01 12:29:08;;;;;;;;;;;19.10;99.90;;;;;;4977230;28;20411;-73
2021/10/01 12:31:40;;;;;;;;;;;19.10;99.90;;;;;;4995963;28;19957;-72
2021/10/01 12:34:18;;;;;;;;;;;19.20;99.90;;;;;;4995881;28;19933;-73
2021/10/01 12:36:52;;;;;;;;;;;19.20;99.90;;;;;;4995827;28;20408;-72
2021/10/01 12:39:25;;;;;;;;;;;19.30;99.90;;;;;;4996131;28;20328;-72
2021/10/01 12:41:56;;;;;;;;;;;19.40;99.90;;;;;;4978363;28;19926;-73
2021/10/01 12:44:32;;;;;;;;;;;19.50;99.90;;;;;;4995409;28;20385;-73
2021/10/01 12:47:10;;;;;;;;;;;19.50;99.90;;;;;;4978216;28;19926;-73
2021/10/01 12:50:02;;;;;;;;;;;19.60;99.90;;;;;;4995498;28;20461;-73
2021/10/01 12:52:30;;;;;;;;;;;19.70;99.90;;;;;;4962287;28;19932;-73
2021/10/01 12:55:01;;;;;;;;;;;19.80;99.90;;;;;;4977620;28;19926;-74
2021/10/01 12:57:28;;;;;;;;;;;19.80;99.90;;;;;;4995102;28;19925;-72
2021/10/01 13:00:02;;;;;;;;;;;19.80;99.90;;;;;;4978533;28;20328;-73
2021/10/01 13:02:34;;;;;;;;;;;19.80;99.90;;;;;;4977331;28;19930;-72
2021/10/01 13:05:03;;;;;;;;;;;19.80;99.90;;;;;;4993533;28;19925;-72
2021/10/01 13:07:39;;;;;;;;;;;19.90;99.90;;;;;;4994207;28;19926;-73
2021/10/01 13:10:15;;;;;;;;;;;19.90;99.90;;;;;;4995203;28;19933;-73
2021/10/01 13:13:05;;;;;;;;;;;20.00;99.90;;;;;;4977253;28;19925;-72
2021/10/01 13:15:41;;;;;;;;;;;20.00;99.90;;;;;;4994141;28;19949;-73
2021/10/01 13:18:14;;;;;;;;;;;20.10;99.90;;;;;;4978156;28;19926;-72
2021/10/01 13:20:43;;;;;;;;;;;20.10;99.90;;;;;;4977148;28;19926;-73
2021/10/01 13:23:31;;;;;;;;;;;20.20;99.90;;;;;;4977628;28;20401;-72
2021/10/01 13:25:59;;;;;;;;;;;20.20;99.90;;;;;;4992765;28;20308;-72
2021/10/01 13:28:27;;;;;;;;;;;20.20;99.90;;;;;;4993235;28;19948;-72
2021/10/01 13:30:54;;;;;;;;;;;20.20;99.90;;;;;;4977070;28;19951;-72
2021/10/01 13:33:26;;;;;;;;;;;20.30;99.90;;;;;;4992947;28;19933;-73
2021/10/01 13:35:58;;;;;;;;;;;20.40;99.90;;;;;;4976097;28;20385;-72
2021/10/01 13:38:31;;;;;;;;;;;20.40;99.90;;;;;;4992568;28;19936;-73
2021/10/01 13:40:59;;;;;;;;;;;20.50;99.90;;;;;;4992844;28;19996;-73
2021/10/01 13:43:26;;;;;;;;;;;20.60;99.90;;;;;;4991798;28;19937;-72
2021/10/01 13:45:59;;;;;;;;;;;20.60;99.90;;;;;;4985466;28;19933;-73
2021/10/01 13:48:26;;;;;;;;;;;20.70;99.90;;;;;;4986586;28;19930;-72
2021/10/01 13:50:58;;;;;;;;;;;20.80;99.90;;;;;;4992670;28;19926;-72
2021/10/01 13:53:30;;;;;;;;;;;20.90;99.90;;;;;;4973942;28;20555;-72
2021/10/01 13:55:57;;;;;;;;;;;20.80;99.90;;;;;;4974499;28;19949;-73
2021/10/01 13:58:24;;;;;;;;;;;20.70;99.90;;;;;;4976617;28;20364;-72
2021/10/01 14:00:56;;;;;;;;;;;20.80;99.90;;;;;;4993646;28;19929;-72
2021/10/01 14:03:28;;;;;;;;;;;20.80;99.90;;;;;;4993856;28;19929;-72
2021/10/01 14:05:56;;;;;;;;;;;20.80;99.90;;;;;;4976482;28;20300;-72
2021/10/01 14:08:27;;;;;;;;;;;20.90;99.90;;;;;;4974565;28;20332;-73
2021/10/01 14:10:54;;;;;;;;;;;20.90;99.90;;;;;;4975280;28;19932;-73
2021/10/01 14:13:21;;;;;;;;;;;20.90;99.90;;;;;;4972062;28;20580;-72
2021/10/01 14:15:49;;;;;;;;;;;20.90;99.90;;;;;;4983093;28;19977;-72
2021/10/01 14:18:16;;;;;;;;;;;21.00;99.90;;;;;;4981913;28;19972;-73
2021/10/01 14:20:44;;;;;;;;;;;21.10;99.90;;;;;;4974947;28;19926;-73
2021/10/01 14:23:15;;;;;;;;;;;21.20;99.90;;;;;;4987206;28;20016;-72
2021/10/01 14:25:47;;;;;;;;;;;21.20;99.90;;;;;;4969023;28;20385;-73
2021/10/01 14:28:19;;;;;;;;;;;21.20;99.90;;;;;;4979300;28;20296;-73
2021/10/01 14:30:51;;;;;;;;;;;21.20;99.90;;;;;;5001849;28;19964;-73
2021/10/01 14:33:17;;;;;;;;;;;21.30;99.90;;;;;;4975645;28;19925;-73
2021/10/01 14:35:49;;;;;;;;;;;21.40;99.90;;;;;;4975988;28;19976;-72
2021/10/01 14:38:21;;;;;;;;;;;21.40;99.90;;;;;;4959981;28;19929;-75
2021/10/01 14:40:48;;;;;;;;;;;21.40;99.90;;;;;;4999696;28;19932;-73
2021/10/01 14:43:19;;;;;;;;;;;21.40;99.90;;;;;;4987905;28;19925;-73
2021/10/01 14:45:52;;;;;;;;;;;21.50;99.90;;;;;;4998675;28;19983;-73
2021/10/01 14:48:18;;;;;;;;;;;21.50;99.90;;;;;;4990420;28;20028;-73
2021/10/01 14:50:51;;;;;;;;;;;21.60;99.90;;;;;;4978828;28;19930;-73
2021/10/01 14:53:17;;;;;;;;;;;21.70;99.90;;;;;;4961982;28;19926;-73
2021/10/01 14:55:56;;;;;;;;;;;21.80;99.90;;;;;;4984412;28;19933;-73
2021/10/01 14:58:28;;;;;;;;;;;21.80;99.90;;;;;;4984627;28;19925;-73
2021/10/01 15:00:59;;;;;;;;;;;22.00;99.90;;;;;;4994525;28;19929;-73
2021/10/01 15:03:26;;;;;;;;;;;22.20;99.90;;;;;;5009757;28;19925;-75
2021/10/01 15:05:53;;;;;;;;;;;22.40;99.90;;;;;;4978010;28;19926;-73
2021/10/01 15:08:21;;;;;;;;;;;22.60;99.90;;;;;;4978831;28;19926;-73
2021/10/01 15:10:53;;;;;;;;;;;22.80;99.90;;;;;;4994117;28;19984;-73
2021/10/01 15:13:25;;;;;;;;;;;22.80;99.90;;;;;;4994822;28;19945;-76
2021/10/01 15:15:52;;;;;;;;;;;22.80;99.90;;;;;;4977325;28;19932;-73
2021/10/01 15:18:24;;;;;;;;;;;22.80;99.90;;;;;;4978865;28;19932;-73
2021/10/01 15:20:55;;;;;;;;;;;22.60;99.90;;;;;;4994303;28;19930;-74
2021/10/01 15:23:27;;;;;;;;;;;22.60;99.90;;;;;;4978945;28;20399;-73
2021/10/01 15:25:54;;;;;;;;;;;22.40;99.90;;;;;;4994050;28;19925;-74
2021/10/01 15:28:26;;;;;;;;;;;22.40;99.90;;;;;;4995147;28;19926;-75
2021/10/01 15:30:58;;;;;;;;;;;22.30;99.90;;;;;;5010517;28;19929;-72
2021/10/01 15:33:30;;;;;;;;;;;22.30;99.90;;;;;;5004087;28;19926;-73
2021/10/01 15:36:01;;;;;;;;;;;22.30;99.90;;;;;;4972984;28;20361;-73
2021/10/01 15:38:34;;;;;;;;;;;22.30;99.90;;;;;;4981842;28;19961;-73
2021/10/01 15:41:06;;;;;;;;;;;22.30;99.90;;;;;;4994959;28;19932;-73
2021/10/01 15:43:37;;;;;;;;;;;22.10;99.90;;;;;;4993934;28;19930;-73
2021/10/01 15:46:09;;;;;;;;;;;22.10;99.90;;;;;;4977869;28;19926;-74
2021/10/01 15:48:37;;;;;;;;;;;21.90;99.90;;;;;;4995083;28;19932;-73
2021/10/01 15:51:04;;;;;;;;;;;21.80;99.90;;;;;;4994700;28;19926;-74
2021/10/01 15:53:32;;;;;;;;;;;21.70;99.90;;;;;;4978505;28;19997;-74
2021/10/01 15:56:03;;;;;;;;;;;21.60;99.90;;;;;;4994115;28;19926;-73
2021/10/01 15:58:30;;;;;;;;;;;21.30;99.90;;;;;;4978406;28;19976;-74
2021/10/01 16:01:03;;;;;;;;;;;21.00;99.90;;;;;;4978587;28;19930;-74
2021/10/01 16:03:29;;;;;;;;;;;20.50;99.90;;;;;;4994732;28;19926;-74
2021/10/01 16:06:01;;;;;;;;;;;20.10;99.90;;;;;;4977933;28;19930;-74
2021/10/01 16:08:28;;;;;;;;;;;19.80;99.90;;;;;;4978624;28;19934;-74
2021/10/01 16:10:55;;;;;;;;;;;19.40;99.90;;;;;;4978976;28;20016;-74
2021/10/01 16:13:22;;;;;;;;;;;19.20;99.90;;;;;;4962685;28;19940;-73
2021/10/01 16:15:55;;;;;;;;;;;18.90;99.90;;;;;;4978978;28;19929;-74
2021/10/01 16:18:22;;;;;;;;;;;18.60;99.90;;;;;;4978534;28;19940;-73
2021/10/01 16:20:54;;;;;;;;;;;18.20;99.90;;;;;;4979433;28;19926;-73
2021/10/01 16:23:22;;;;;;;;;;;17.90;99.90;;;;;;4978624;28;19925;-73
2021/10/01 16:25:54;;;;;;;;;;;17.80;99.90;;;;;;4995078;28;19926;-73